JBU2940 TJSJ-TISX
Flight info
| Callsign | JBU2940 |
|---|---|
| Flight time | 0h 29m |
| Altitude | 15000 |
| Route | SJU RTE2 COY |
| Aircraft | A20N/M-SDE2E3FGHIRWXY/LB1 |
Departure
| Time | 2026-04-21 16:00 |
|---|---|
| Airport | Luis Munoz Marin International Airport (TJSJ) |
Arrival
| Time | 2026-04-21 16:29 |
|---|---|
| Airport | Henry E. Rohlsen Airport (TISX) |
| Time | Latitude | Longitude | Altitude | Speed | Heading |
|---|---|---|---|---|---|
| 2026-04-21 15:26 | 18.43548 | -66.00592 | 18 ft | 0 kts | 0° |
| 2026-04-21 15:49 | 18.43542 | -66.00591 | 18 ft | 4 kts | 8° |
| 2026-04-21 15:49 | 18.43516 | -66.00593 | 20 ft | 4 kts | 356° |
| 2026-04-21 15:50 | 18.43490 | -66.00587 | 18 ft | 4 kts | 330° |
| 2026-04-21 15:50 | 18.43476 | -66.00571 | 21 ft | 2 kts | 271° |
| 2026-04-21 15:50 | 18.43476 | -66.00570 | 21 ft | 0 kts | 271° |
| 2026-04-21 15:55 | 18.43476 | -66.00595 | 19 ft | 9 kts | 271° |
| 2026-04-21 15:55 | 18.43477 | -66.00680 | 18 ft | 14 kts | 270° |
| 2026-04-21 15:56 | 18.43475 | -66.00798 | 18 ft | 17 kts | 269° |
| 2026-04-21 15:56 | 18.43466 | -66.00932 | 18 ft | 19 kts | 269° |
| 2026-04-21 15:56 | 18.43465 | -66.01081 | 18 ft | 22 kts | 270° |
| 2026-04-21 15:56 | 18.43467 | -66.01232 | 18 ft | 14 kts | 270° |
| 2026-04-21 15:57 | 18.43467 | -66.01314 | 18 ft | 13 kts | 269° |
| 2026-04-21 15:57 | 18.43451 | -66.01348 | 19 ft | 0 kts | 220° |
| 2026-04-21 15:58 | 18.43450 | -66.01348 | 19 ft | 1 kts | 220° |
| 2026-04-21 15:58 | 18.43389 | -66.01353 | 19 ft | 15 kts | 178° |
| 2026-04-21 15:58 | 18.43356 | -66.01303 | 19 ft | 6 kts | 75° |
| 2026-04-21 15:59 | 18.43355 | -66.01297 | 19 ft | 0 kts | 90° |
| 2026-04-21 15:59 | 18.43356 | -66.01271 | 19 ft | 21 kts | 89° |
| 2026-04-21 15:59 | 18.43356 | -66.00858 | 17 ft | 89 kts | 90° |
| 2026-04-21 15:59 | 18.43355 | -66.00015 | 26 ft | 139 kts | 89° |
| 2026-04-21 16:00 | 18.43340 | -65.99005 | 613 ft | 138 kts | 90° |
| 2026-04-21 16:00 | 18.43302 | -65.97959 | 1089 ft | 149 kts | 91° |
| 2026-04-21 16:00 | 18.43300 | -65.96823 | 1518 ft | 160 kts | 88° |
| 2026-04-21 16:00 | 18.43379 | -65.95624 | 1987 ft | 171 kts | 84° |
| 2026-04-21 16:01 | 18.43459 | -65.94299 | 2336 ft | 192 kts | 89° |
| 2026-04-21 16:01 | 18.43481 | -65.92820 | 2766 ft | 215 kts | 85° |
| 2026-04-21 16:01 | 18.43761 | -65.91177 | 3304 ft | 240 kts | 78° |
| 2026-04-21 16:01 | 18.44145 | -65.89390 | 3947 ft | 259 kts | 78° |
| 2026-04-21 16:02 | 18.44526 | -65.87544 | 4902 ft | 263 kts | 79° |
| 2026-04-21 16:02 | 18.44891 | -65.85638 | 5892 ft | 268 kts | 79° |
| 2026-04-21 16:02 | 18.45251 | -65.83701 | 6849 ft | 272 kts | 80° |
| 2026-04-21 16:02 | 18.45512 | -65.81706 | 7698 ft | 278 kts | 84° |
| 2026-04-21 16:03 | 18.45687 | -65.79652 | 8547 ft | 284 kts | 84° |
| 2026-04-21 16:03 | 18.45843 | -65.77555 | 9417 ft | 291 kts | 84° |
| 2026-04-21 16:03 | 18.45989 | -65.75408 | 10253 ft | 298 kts | 84° |
| 2026-04-21 16:03 | 18.46142 | -65.73155 | 10607 ft | 321 kts | 84° |
| 2026-04-21 16:04 | 18.46314 | -65.70727 | 10877 ft | 343 kts | 84° |
| 2026-04-21 16:04 | 18.46497 | -65.68184 | 11495 ft | 351 kts | 84° |
| 2026-04-21 16:04 | 18.46687 | -65.65601 | 12261 ft | 356 kts | 84° |
| 2026-04-21 16:04 | 18.46882 | -65.62990 | 12989 ft | 361 kts | 84° |
| 2026-04-21 16:05 | 18.47085 | -65.60336 | 13723 ft | 365 kts | 84° |
| 2026-04-21 16:05 | 18.47294 | -65.57656 | 14383 ft | 370 kts | 84° |
| 2026-04-21 16:05 | 18.47508 | -65.54937 | 14786 ft | 374 kts | 84° |
| 2026-04-21 16:05 | 18.47725 | -65.52209 | 14927 ft | 375 kts | 84° |
| 2026-04-21 16:06 | 18.47938 | -65.49472 | 14967 ft | 375 kts | 85° |
| 2026-04-21 16:06 | 18.48115 | -65.46732 | 14961 ft | 374 kts | 85° |
| 2026-04-21 16:06 | 18.48288 | -65.44000 | 14961 ft | 374 kts | 85° |
| 2026-04-21 16:06 | 18.48460 | -65.41267 | 14961 ft | 374 kts | 85° |
| 2026-04-21 16:07 | 18.48633 | -65.38536 | 14962 ft | 374 kts | 85° |
| 2026-04-21 16:07 | 18.48806 | -65.35804 | 14963 ft | 373 kts | 85° |
| 2026-04-21 16:07 | 18.48977 | -65.33076 | 14964 ft | 373 kts | 85° |
| 2026-04-21 16:07 | 18.49149 | -65.30346 | 14964 ft | 373 kts | 85° |
| 2026-04-21 16:08 | 18.48857 | -65.24926 | 14968 ft | 376 kts | 110° |
| 2026-04-21 16:08 | 18.47758 | -65.22468 | 14965 ft | 377 kts | 117° |
| 2026-04-21 16:08 | 18.46484 | -65.20054 | 14965 ft | 376 kts | 119° |
| 2026-04-21 16:09 | 18.45189 | -65.17658 | 14965 ft | 377 kts | 119° |
| 2026-04-21 16:09 | 18.43893 | -65.15262 | 14957 ft | 376 kts | 119° |
| 2026-04-21 16:09 | 18.42597 | -65.12866 | 14960 ft | 376 kts | 119° |
| 2026-04-21 16:09 | 18.41300 | -65.10471 | 14963 ft | 377 kts | 119° |
| 2026-04-21 16:10 | 18.40002 | -65.08073 | 14958 ft | 377 kts | 119° |
| 2026-04-21 16:10 | 18.38705 | -65.05677 | 14960 ft | 376 kts | 119° |
| 2026-04-21 16:10 | 18.37406 | -65.03281 | 14961 ft | 377 kts | 119° |
| 2026-04-21 16:10 | 18.36102 | -65.00891 | 14960 ft | 377 kts | 121° |
| 2026-04-21 16:11 | 18.34386 | -64.98820 | 14962 ft | 378 kts | 141° |
| 2026-04-21 16:11 | 18.32111 | -64.97431 | 14965 ft | 379 kts | 155° |
| 2026-04-21 16:11 | 18.29710 | -64.96293 | 14958 ft | 378 kts | 156° |
| 2026-04-21 16:11 | 18.27313 | -64.95162 | 14963 ft | 378 kts | 156° |
| 2026-04-21 16:12 | 18.24909 | -64.94028 | 14959 ft | 378 kts | 156° |
| 2026-04-21 16:12 | 18.22507 | -64.92896 | 14959 ft | 378 kts | 156° |
| 2026-04-21 16:12 | 18.20106 | -64.91764 | 14958 ft | 379 kts | 156° |
| 2026-04-21 16:12 | 18.17701 | -64.90629 | 14960 ft | 379 kts | 156° |
| 2026-04-21 16:13 | 18.15297 | -64.89495 | 14961 ft | 378 kts | 156° |
| 2026-04-21 16:13 | 18.12902 | -64.88363 | 14876 ft | 376 kts | 156° |
| 2026-04-21 16:13 | 18.10520 | -64.87239 | 14547 ft | 375 kts | 156° |
| 2026-04-21 16:13 | 18.08150 | -64.86124 | 14106 ft | 372 kts | 156° |
| 2026-04-21 16:14 | 18.05789 | -64.85018 | 13624 ft | 369 kts | 156° |
| 2026-04-21 16:14 | 18.03452 | -64.83927 | 13092 ft | 366 kts | 156° |
| 2026-04-21 16:14 | 18.01158 | -64.82862 | 12579 ft | 364 kts | 156° |
| 2026-04-21 16:14 | 17.98853 | -64.81799 | 12091 ft | 360 kts | 156° |
| 2026-04-21 16:15 | 17.96566 | -64.80749 | 11609 ft | 357 kts | 156° |
| 2026-04-21 16:15 | 17.94299 | -64.79715 | 11132 ft | 354 kts | 156° |
| 2026-04-21 16:15 | 17.92046 | -64.78692 | 10652 ft | 352 kts | 156° |
| 2026-04-21 16:15 | 17.89805 | -64.77680 | 10174 ft | 349 kts | 156° |
| 2026-04-21 16:16 | 17.87578 | -64.76681 | 9696 ft | 346 kts | 156° |
| 2026-04-21 16:16 | 17.85375 | -64.75697 | 9223 ft | 342 kts | 156° |
| 2026-04-21 16:16 | 17.83227 | -64.74740 | 9065 ft | 328 kts | 156° |
| 2026-04-21 16:16 | 17.81167 | -64.73824 | 8934 ft | 315 kts | 156° |
| 2026-04-21 16:17 | 17.79159 | -64.73041 | 8810 ft | 302 kts | 168° |
| 2026-04-21 16:17 | 17.77101 | -64.73039 | 8560 ft | 295 kts | 193° |
| 2026-04-21 16:17 | 17.75259 | -64.73933 | 8206 ft | 292 kts | 219° |
| 2026-04-21 16:17 | 17.73980 | -64.75547 | 7828 ft | 291 kts | 244° |
| 2026-04-21 16:18 | 17.73500 | -64.77594 | 7469 ft | 289 kts | 271° |
| 2026-04-21 16:18 | 17.73836 | -64.79657 | 7072 ft | 287 kts | 285° |
| 2026-04-21 16:18 | 17.74356 | -64.81672 | 6723 ft | 286 kts | 286° |
| 2026-04-21 16:18 | 17.74876 | -64.83662 | 6535 ft | 277 kts | 286° |
| 2026-04-21 16:19 | 17.75379 | -64.85566 | 6415 ft | 266 kts | 286° |
| 2026-04-21 16:19 | 17.75869 | -64.87422 | 6125 ft | 263 kts | 286° |
| 2026-04-21 16:19 | 17.76356 | -64.89267 | 5811 ft | 263 kts | 286° |
| 2026-04-21 16:19 | 17.76843 | -64.91107 | 5486 ft | 262 kts | 286° |
| 2026-04-21 16:20 | 17.77326 | -64.92939 | 5294 ft | 256 kts | 286° |
| 2026-04-21 16:20 | 17.77789 | -64.94701 | 5189 ft | 246 kts | 286° |
| 2026-04-21 16:20 | 17.78239 | -64.96405 | 5028 ft | 240 kts | 286° |
| 2026-04-21 16:20 | 17.78683 | -64.98095 | 4746 ft | 241 kts | 286° |
| 2026-04-21 16:21 | 17.79130 | -64.99785 | 4501 ft | 239 kts | 286° |
| 2026-04-21 16:21 | 17.79570 | -65.01457 | 4229 ft | 238 kts | 286° |
| 2026-04-21 16:21 | 17.80015 | -65.03127 | 3997 ft | 236 kts | 286° |
| 2026-04-21 16:21 | 17.80313 | -65.04814 | 3699 ft | 237 kts | 266° |
| 2026-04-21 16:22 | 17.79823 | -65.06427 | 3411 ft | 232 kts | 233° |
| 2026-04-21 16:22 | 17.78644 | -65.07501 | 3080 ft | 228 kts | 200° |
| 2026-04-21 16:22 | 17.77116 | -65.07739 | 2765 ft | 222 kts | 167° |
| 2026-04-21 16:22 | 17.75669 | -65.07249 | 2520 ft | 218 kts | 156° |
| 2026-04-21 16:23 | 17.74253 | -65.06677 | 2277 ft | 218 kts | 155° |
| 2026-04-21 16:23 | 17.72848 | -65.06108 | 2058 ft | 215 kts | 156° |
| 2026-04-21 16:23 | 17.71447 | -65.05536 | 1994 ft | 221 kts | 155° |
| 2026-04-21 16:23 | 17.70031 | -65.04972 | 1996 ft | 214 kts | 156° |
| 2026-04-21 16:24 | 17.68762 | -65.04205 | 1997 ft | 212 kts | 129° |
| 2026-04-21 16:24 | 17.68099 | -65.02864 | 2021 ft | 207 kts | 97° |
| 2026-04-21 16:24 | 17.68099 | -65.01356 | 2027 ft | 209 kts | 87° |
| 2026-04-21 16:24 | 17.68162 | -64.99830 | 1988 ft | 211 kts | 86° |
| 2026-04-21 16:25 | 17.68316 | -64.98308 | 1953 ft | 209 kts | 82° |
| 2026-04-21 16:25 | 17.68516 | -64.96816 | 1966 ft | 208 kts | 82° |
| 2026-04-21 16:25 | 17.68710 | -64.95310 | 1946 ft | 209 kts | 83° |
| 2026-04-21 16:25 | 17.68854 | -64.93793 | 1856 ft | 205 kts | 85° |
| 2026-04-21 16:26 | 17.68955 | -64.92400 | 1913 ft | 175 kts | 85° |
| 2026-04-21 16:26 | 17.69058 | -64.91174 | 1870 ft | 168 kts | 84° |
| 2026-04-21 16:26 | 17.69172 | -64.89994 | 1697 ft | 160 kts | 85° |
| 2026-04-21 16:26 | 17.69280 | -64.88833 | 1500 ft | 158 kts | 85° |
| 2026-04-21 16:27 | 17.69384 | -64.87713 | 1381 ft | 154 kts | 84° |
| 2026-04-21 16:27 | 17.69510 | -64.86578 | 1040 ft | 161 kts | 82° |
| 2026-04-21 16:27 | 17.69633 | -64.85455 | 834 ft | 150 kts | 84° |
| 2026-04-21 16:27 | 17.69725 | -64.84373 | 640 ft | 154 kts | 85° |
| 2026-04-21 16:28 | 17.69851 | -64.83307 | 411 ft | 140 kts | 86° |
| 2026-04-21 16:28 | 17.69937 | -64.82268 | 209 ft | 153 kts | 87° |
| 2026-04-21 16:28 | 17.70050 | -64.81214 | 86 ft | 138 kts | 86° |
| 2026-04-21 16:28 | 17.70137 | -64.80357 | 53 ft | 91 kts | 84° |
| 2026-04-21 16:29 | 17.70173 | -64.79928 | 50 ft | 27 kts | 104° |
| 2026-04-21 16:29 | 17.70111 | -64.79771 | 48 ft | 19 kts | 114° |
| 2026-04-21 16:29 | 17.70058 | -64.79675 | 47 ft | 10 kts | 144° |
| 2026-04-21 16:29 | 17.70004 | -64.79665 | 47 ft | 0 kts | 176° |